castasugar.com alexa rank chart, castasugar.com alexa rank daily changes

castasugar.com alexa rank chart, castasugar.com alexa rank daily changes

castasugar.com
Actual rank:
409 787

RANK HISTORY

Date Rank Diff
2017/07/28 409 787 -425
2017/07/27 410 212 -1 809
2017/07/26 412 021 -1 230
2017/07/25 413 251 +2 925
2017/07/24 410 326 +12 550
2017/07/23 397 776 +3 843
2017/07/22 393 933 -368
2017/07/21 394 301 +2 444
2017/07/20 391 857 -3 292
2017/07/19 395 149 -57 717
2017/07/18 452 866 +46 227
2017/07/17 406 639 -4 649
2017/07/16 411 288 +6 068
2017/07/15 405 220 +2 208
2017/07/14 403 012 -2 551
2017/07/13 405 563 +59 898
2017/07/12 345 665 -52 808
2017/07/11 398 473 +46 749
2017/07/10 351 724 -19 937
2017/07/09 371 661 -3 976
2017/07/08 375 637 -17 060
2017/07/07 392 697 -7 016
2017/07/06 399 713 -2 294
2017/07/05 402 007 -47 872
2017/07/04 449 879 -6 974
2017/07/03 456 853 -1 595
2017/07/02 458 448 -742
2017/07/01 459 190 -4 061
2017/06/30 463 251 +299
2017/06/29 462 952 +2 183
2017/06/28 460 769 +1 125
2017/06/27 459 644 -1 417
2017/06/26 461 061 +2 454
2017/06/25 458 607 -2 686
2017/06/24 461 293 -10 100
2017/06/23 471 393 +6 853
2017/06/22 464 540 +62 913
2017/06/21 401 627 +959
2017/06/20 400 668 +839
2017/06/19 399 829 +35 973
2017/06/18 363 856 -28 256
2017/06/17 392 112 -3 071
2017/06/16 395 183 -2 141
2017/06/15 397 324 -1 329
2017/06/14 398 653 +45 548
2017/06/13 353 105 -6 623
2017/06/12 359 728 +27 080
2017/06/11 332 648 -47 367
2017/06/10 380 015 +8 534
2017/06/09 371 481 +1 241
2017/06/08 370 240 +50 826
2017/06/07 319 414 +641
2017/06/06 318 773 +20 934
2017/06/05 297 839 +647
2017/06/04 297 192 +933
2017/06/03 296 259 +149
2017/06/02 296 110 +29 250
2017/06/01 266 860 +6 247
2017/05/31 260 613 -1 713
2017/05/30 262 326 +17 974
2017/05/29 244 352

WIDGET FOR YOUR SITE

DOMAINS WITH THE NEAREST RANK

Domain Rank
girls-games.ru 409 782
celticwhiskeyshop.com 409 783
adabmag.com 409 784
vu-wien.ac.at 409 785
1clipboard.io 409 786
castasugar.com 409 787
leon-3d.es 409 788
kineticsnoise.com 409 789
dinstartsida.se 409 790
dlakierowcy.info 409 791
milsuite.mil 409 792

DOMAINS WITH THE NEAREST RANK BY TLD .com

Domain Rank
sudo4u.com 409 775
stashrewards.com 409 776
funkidslive.com 409 777
celticwhiskeyshop.com 409 783
adabmag.com 409 784
castasugar.com 409 787
kineticsnoise.com 409 789
cafe-royal.com 409 794
googlecom.com 409 795
cat3plus.com 409 797
estudiahosteleria.com 409 799